createdAt,value
2017-10-03T00:01:36.331Z,7.03
2017-10-03T00:04:04.467Z,6.60
2017-10-03T00:06:32.546Z,8.10
2017-10-03T00:09:00.795Z,6.50
2017-10-03T00:11:28.859Z,8.10
2017-10-03T00:13:57.275Z,6.63
2017-10-03T00:16:25.359Z,7.00
2017-10-03T00:18:53.447Z,7.20
2017-10-03T00:21:21.516Z,8.20
2017-10-03T00:23:49.614Z,7.93
2017-10-03T00:26:17.696Z,10.07
2017-10-03T00:28:45.774Z,13.43
2017-10-03T00:31:14.612Z,10.13
2017-10-03T00:33:42.919Z,15.17
2017-10-03T00:36:11.023Z,14.50
2017-10-03T00:38:39.275Z,12.60
2017-10-03T00:41:08.884Z,13.70
2017-10-03T00:43:37.052Z,13.77
2017-10-03T00:46:05.946Z,13.87
2017-10-03T00:48:34.022Z,10.70
2017-10-03T00:51:02.876Z,11.27
2017-10-03T00:53:30.950Z,13.40
2017-10-03T00:55:59.067Z,9.47
2017-10-03T00:58:27.149Z,13.10
2017-10-03T01:00:55.409Z,10.57
2017-10-03T01:03:24.265Z,13.77
2017-10-03T01:05:52.351Z,10.80
2017-10-03T01:08:21.211Z,12.60
2017-10-03T01:10:49.301Z,12.33
2017-10-03T01:13:17.378Z,14.10
2017-10-03T01:15:46.242Z,10.33
2017-10-03T01:18:14.353Z,11.50
2017-10-03T01:20:43.213Z,10.77
2017-10-03T01:23:11.310Z,10.97
2017-10-03T01:25:39.404Z,14.70
2017-10-03T01:28:07.487Z,12.30
2017-10-03T01:30:35.638Z,10.93
2017-10-03T01:33:03.722Z,10.03
2017-10-03T01:35:31.840Z,15.53
2017-10-03T01:38:06.332Z,10.30
2017-10-03T01:40:34.437Z,11.70
2017-10-03T01:43:02.594Z,9.97
2017-10-03T01:45:30.884Z,14.90
2017-10-03T01:48:00.484Z,15.53
2017-10-03T01:50:28.666Z,14.57
2017-10-03T01:52:56.772Z,12.90
2017-10-03T01:55:25.003Z,10.10
2017-10-03T01:57:53.092Z,10.60
2017-10-03T02:00:21.955Z,11.83
2017-10-03T02:02:50.038Z,10.10
2017-10-03T02:05:18.122Z,11.70
2017-10-03T02:07:46.208Z,8.50
2017-10-03T02:10:14.304Z,9.77
2017-10-03T02:12:42.381Z,9.60
2017-10-03T02:15:10.469Z,9.73
2017-10-03T02:17:38.556Z,9.43
2017-10-03T02:20:06.699Z,7.50
2017-10-03T02:22:34.787Z,7.53
2017-10-03T02:25:02.887Z,9.77
2017-10-03T02:27:31.733Z,10.40
2017-10-03T02:29:59.814Z,9.60
2017-10-03T02:32:27.895Z,9.67
2017-10-03T02:34:55.972Z,8.53
2017-10-03T02:37:24.174Z,12.03
2017-10-03T02:39:52.281Z,10.40
2017-10-03T02:42:20.371Z,8.67
2017-10-03T02:44:48.448Z,6.97
2017-10-03T02:47:18.032Z,7.90
2017-10-03T02:49:46.183Z,9.40
2017-10-03T02:52:14.309Z,8.50
2017-10-03T02:54:42.451Z,7.57
2017-10-03T02:57:10.527Z,8.47
2017-10-03T02:59:38.607Z,6.10
2017-10-03T03:02:07.435Z,8.90
2017-10-03T03:04:35.686Z,6.63
2017-10-03T03:07:05.254Z,5.47
2017-10-03T03:09:33.347Z,6.47
2017-10-03T03:12:01.423Z,5.63
2017-10-03T03:14:29.498Z,6.07
2017-10-03T03:16:57.578Z,6.07
2017-10-03T03:19:26.492Z,5.50
2017-10-03T03:21:54.559Z,5.80
2017-10-03T03:24:22.640Z,5.47
2017-10-03T03:26:50.724Z,6.63
2017-10-03T03:29:18.801Z,4.87
2017-10-03T03:31:46.886Z,5.30
2017-10-03T03:34:14.955Z,5.20
2017-10-03T03:36:43.023Z,4.93
2017-10-03T03:39:11.119Z,4.57
2017-10-03T03:41:39.193Z,5.57
2017-10-03T03:44:07.269Z,7.47
2017-10-03T03:46:36.106Z,9.80
2017-10-03T03:49:04.201Z,5.90
2017-10-03T03:51:32.282Z,6.57
2017-10-03T03:54:00.556Z,6.13
2017-10-03T03:56:28.697Z,5.53
2017-10-03T03:58:56.775Z,2.50
2017-10-03T04:01:24.849Z,3.27
2017-10-03T04:03:53.031Z,1.30
2017-10-03T04:06:21.307Z,1.33
2017-10-03T04:08:49.403Z,1.73
2017-10-03T04:11:17.480Z,1.60
2017-10-03T04:13:45.572Z,1.63
2017-10-03T04:16:13.648Z,1.73
2017-10-03T04:18:41.754Z,2.90
2017-10-03T04:21:09.835Z,3.60
2017-10-03T04:23:38.692Z,3.20
2017-10-03T04:26:06.763Z,3.60
2017-10-03T04:28:34.850Z,2.57
2017-10-03T04:31:03.037Z,4.33
2017-10-03T04:33:31.130Z,3.30
2017-10-03T04:35:59.263Z,3.90
2017-10-03T04:38:27.344Z,2.03
2017-10-03T04:40:56.278Z,2.47
2017-10-03T04:43:24.494Z,3.13
2017-10-03T04:45:52.688Z,3.00
2017-10-03T04:48:20.770Z,5.00
2017-10-03T04:50:48.834Z,4.50
2017-10-03T04:53:17.095Z,1.97
2017-10-03T04:55:45.255Z,6.57
2017-10-03T04:58:13.341Z,6.20
2017-10-03T05:00:41.418Z,3.60
2017-10-03T05:03:10.405Z,4.93
2017-10-03T05:05:39.994Z,6.97
2017-10-03T05:08:08.082Z,3.87
2017-10-03T05:10:36.935Z,3.60
2017-10-03T05:13:05.010Z,8.27
2017-10-03T05:15:33.215Z,3.20
2017-10-03T05:18:01.289Z,4.40
2017-10-03T05:20:29.385Z,6.97
2017-10-03T05:22:57.483Z,3.43
2017-10-03T05:25:25.579Z,6.17
2017-10-03T05:27:53.664Z,3.20
2017-10-03T05:30:21.848Z,2.27
2017-10-03T05:32:50.008Z,4.13
2017-10-03T05:35:18.083Z,3.40
2017-10-03T05:37:47.079Z,4.23
2017-10-03T05:40:15.215Z,5.00
2017-10-03T05:42:43.291Z,6.03
2017-10-03T05:45:11.391Z,5.43
2017-10-03T05:47:39.458Z,6.00
2017-10-03T05:50:07.562Z,8.13
2017-10-03T05:52:35.698Z,13.20
2017-10-03T05:55:03.977Z,6.07
2017-10-03T05:57:33.579Z,7.17
2017-10-03T06:00:02.451Z,3.90
2017-10-03T06:02:30.532Z,5.47
2017-10-03T06:04:59.414Z,3.73
2017-10-03T06:07:27.503Z,5.83
2017-10-03T06:09:56.479Z,4.23
2017-10-03T06:12:26.072Z,6.40
2017-10-03T06:14:54.255Z,4.60
2017-10-03T06:17:23.834Z,5.53
2017-10-03T06:19:51.928Z,2.90
2017-10-03T06:22:20.099Z,3.93
2017-10-03T06:24:48.266Z,4.50
2017-10-03T06:27:16.342Z,4.30
2017-10-03T06:29:44.426Z,3.57
2017-10-03T06:32:12.590Z,3.60
2017-10-03T06:34:40.877Z,3.00
2017-10-03T06:37:08.933Z,6.70
2017-10-03T06:39:37.103Z,3.47
2017-10-03T06:42:05.170Z,10.43
2017-10-03T06:44:33.239Z,7.67
2017-10-03T06:47:01.425Z,8.10
2017-10-03T06:49:29.508Z,4.90
2017-10-03T06:51:57.587Z,7.03
2017-10-03T06:54:25.671Z,4.60
2017-10-03T06:56:53.783Z,8.60
2017-10-03T06:59:21.914Z,7.73
2017-10-03T07:01:49.993Z,8.43
2017-10-03T07:04:18.080Z,6.10
2017-10-03T07:06:46.170Z,5.67
2017-10-03T07:09:14.259Z,9.40
2017-10-03T07:11:42.353Z,6.57
2017-10-03T07:14:10.469Z,4.17
2017-10-03T07:16:38.564Z,3.33
2017-10-03T07:19:06.634Z,4.50
2017-10-03T07:21:34.712Z,5.30
2017-10-03T07:24:03.583Z,5.50
2017-10-03T07:26:31.683Z,7.70
2017-10-03T07:28:59.919Z,3.90
2017-10-03T07:31:28.014Z,6.30
2017-10-03T07:33:56.894Z,18.70
2017-10-03T07:36:24.976Z,14.20
2017-10-03T07:38:54.036Z,13.67
2017-10-03T07:41:22.126Z,7.70
2017-10-03T07:43:50.221Z,5.73
2017-10-03T07:46:18.388Z,4.13
2017-10-03T07:48:46.539Z,4.00
2017-10-03T07:51:14.752Z,3.83
2017-10-03T07:53:42.880Z,6.03
2017-10-03T07:56:10.970Z,4.77
2017-10-03T07:58:39.962Z,8.83
2017-10-03T08:01:08.127Z,5.83
2017-10-03T08:03:36.312Z,8.73
2017-10-03T08:06:04.402Z,2.67
2017-10-03T08:08:32.522Z,4.57
2017-10-03T08:11:00.610Z,3.40
2017-10-03T08:13:28.709Z,6.17
2017-10-03T08:15:57.686Z,4.17
2017-10-03T08:18:26.590Z,3.83
2017-10-03T08:20:54.683Z,5.27
2017-10-03T08:23:22.763Z,5.30
2017-10-03T08:25:50.866Z,4.93
2017-10-03T08:28:18.977Z,6.43
2017-10-03T08:30:47.818Z,6.53
2017-10-03T08:33:15.899Z,9.77
2017-10-03T08:35:43.999Z,7.90
2017-10-03T08:38:12.847Z,7.93
2017-10-03T08:40:41.045Z,9.47
2017-10-03T08:43:09.307Z,8.73
2017-10-03T08:45:37.398Z,10.97
2017-10-03T08:48:05.481Z,9.73
2017-10-03T08:50:33.571Z,9.90
2017-10-03T08:53:01.672Z,9.60
2017-10-03T08:55:29.762Z,9.67
2017-10-03T08:57:57.854Z,7.60
2017-10-03T09:00:25.924Z,6.70
2017-10-03T09:02:54.770Z,10.13
2017-10-03T09:05:22.881Z,9.20
2017-10-03T09:07:51.839Z,6.47
2017-10-03T09:10:20.126Z,9.90
2017-10-03T09:12:48.219Z,7.87
2017-10-03T09:15:16.358Z,7.67
2017-10-03T09:17:44.435Z,5.10
2017-10-03T09:20:12.531Z,11.07
2017-10-03T09:22:41.380Z,8.00
2017-10-03T09:25:09.575Z,6.63
2017-10-03T09:27:37.726Z,6.43
2017-10-03T09:30:05.911Z,6.07
2017-10-03T09:32:33.991Z,5.17
2017-10-03T09:35:02.092Z,3.00
2017-10-03T09:37:30.169Z,2.67
2017-10-03T09:39:58.413Z,4.40
2017-10-03T09:42:26.483Z,2.60
2017-10-03T09:44:54.567Z,6.20
2017-10-03T09:47:22.665Z,3.77
2017-10-03T09:49:50.765Z,4.70
2017-10-03T09:52:18.856Z,4.07
2017-10-03T09:54:46.943Z,3.80
2017-10-03T09:57:15.787Z,4.10
2017-10-03T09:59:43.979Z,6.40
2017-10-03T10:02:12.058Z,6.70
2017-10-03T10:04:40.139Z,6.40
2017-10-03T10:07:08.410Z,6.40
2017-10-03T10:09:36.485Z,7.27
2017-10-03T10:12:04.740Z,6.70
2017-10-03T10:14:32.918Z,7.63
2017-10-03T10:17:01.923Z,8.83
2017-10-03T10:19:29.998Z,7.00
2017-10-03T10:21:58.139Z,4.43
2017-10-03T10:24:26.229Z,4.00
2017-10-03T10:26:54.312Z,7.40
2017-10-03T10:29:23.167Z,4.90
2017-10-03T10:31:51.359Z,4.77
2017-10-03T10:34:19.511Z,7.03
2017-10-03T10:36:48.618Z,4.53
2017-10-03T10:39:16.691Z,4.63
2017-10-03T10:41:44.863Z,4.70
2017-10-03T10:44:14.459Z,5.50
2017-10-03T10:46:42.645Z,4.87
2017-10-03T10:49:10.795Z,6.43
2017-10-03T10:51:38.874Z,5.57
2017-10-03T10:54:07.723Z,3.53
2017-10-03T10:56:35.811Z,4.20
2017-10-03T10:59:04.022Z,3.40
2017-10-03T11:01:32.098Z,3.10
2017-10-03T11:04:00.355Z,4.40
2017-10-03T11:06:29.116Z,4.80
2017-10-03T11:08:57.174Z,3.30
2017-10-03T11:11:25.391Z,5.90
2017-10-03T11:13:53.535Z,5.67
2017-10-03T11:16:21.622Z,4.60
2017-10-03T11:18:49.821Z,5.10
2017-10-03T11:21:17.951Z,6.23
2017-10-03T11:23:57.758Z,5.10
2017-10-03T11:26:25.898Z,3.40
2017-10-03T11:28:54.058Z,3.60
2017-10-03T11:31:22.230Z,15.53
2017-10-03T11:33:50.391Z,9.47
2017-10-03T11:36:18.586Z,3.80
2017-10-03T11:38:46.770Z,7.20
2017-10-03T11:41:15.703Z,4.43
2017-10-03T11:43:44.011Z,4.93
2017-10-03T11:46:13.733Z,10.20
2017-10-03T11:48:43.494Z,5.77
2017-10-03T11:51:11.595Z,8.20
2017-10-03T11:53:39.669Z,4.30
2017-10-03T11:56:07.778Z,7.20
2017-10-03T11:58:36.726Z,6.17
2017-10-03T12:01:04.830Z,4.43
2017-10-03T12:03:32.900Z,4.07
2017-10-03T12:06:01.053Z,5.07
2017-10-03T12:08:29.920Z,4.23
2017-10-03T12:10:58.117Z,4.37
2017-10-03T12:13:26.258Z,7.40
2017-10-03T12:15:54.334Z,6.40
2017-10-03T12:18:22.410Z,7.57
2017-10-03T12:20:50.874Z,6.00
2017-10-03T12:23:18.983Z,5.70
2017-10-03T12:25:47.056Z,4.93
2017-10-03T12:28:15.186Z,6.00
2017-10-03T12:30:43.503Z,9.50
2017-10-03T12:33:11.778Z,3.97
2017-10-03T12:35:39.865Z,3.70
2017-10-03T12:38:07.954Z,8.10
2017-10-03T12:40:36.056Z,8.93
2017-10-03T12:43:04.267Z,7.00
2017-10-03T12:45:33.960Z,7.97
2017-10-03T12:48:02.057Z,4.80
2017-10-03T12:50:30.149Z,5.83
2017-10-03T12:52:58.440Z,3.90
2017-10-03T12:55:26.663Z,3.80
2017-10-03T12:57:54.803Z,7.40
2017-10-03T13:00:24.109Z,7.60
2017-10-03T13:02:52.277Z,5.77
2017-10-03T13:05:20.425Z,5.20
2017-10-03T13:07:49.070Z,3.57
2017-10-03T13:10:17.315Z,6.37
2017-10-03T13:12:45.421Z,4.47
2017-10-03T13:15:13.552Z,8.10
2017-10-03T13:17:41.748Z,7.33
2017-10-03T13:20:10.013Z,3.20
2017-10-03T13:22:38.191Z,3.27
2017-10-03T13:25:06.559Z,3.53
2017-10-03T13:27:34.715Z,4.77
2017-10-03T13:30:03.220Z,3.33
2017-10-03T13:32:31.312Z,4.40
2017-10-03T13:35:00.148Z,3.50
2017-10-03T13:37:28.238Z,3.77
2017-10-03T13:39:56.321Z,4.60
2017-10-03T13:42:24.418Z,3.90
2017-10-03T13:44:53.289Z,7.87
2017-10-03T13:47:22.264Z,3.40
2017-10-03T13:49:50.344Z,4.13
2017-10-03T13:52:18.602Z,3.77
2017-10-03T13:54:46.688Z,4.93
2017-10-03T13:57:14.837Z,4.60
2017-10-03T13:59:42.920Z,4.17
2017-10-03T14:02:11.002Z,4.00
2017-10-03T14:04:39.084Z,5.80
2017-10-03T14:07:07.939Z,9.20
2017-10-03T14:09:36.127Z,6.30
2017-10-03T14:12:05.826Z,4.30
2017-10-03T14:14:33.928Z,5.87
2017-10-03T14:17:02.176Z,5.93
2017-10-03T14:19:30.268Z,4.80
2017-10-03T14:21:58.399Z,6.53
2017-10-03T14:24:26.494Z,6.00
2017-10-03T14:26:54.734Z,6.10
2017-10-03T14:29:22.804Z,7.03
2017-10-03T14:31:50.889Z,4.20
2017-10-03T14:34:18.956Z,8.67
2017-10-03T14:36:47.041Z,6.60
2017-10-03T14:39:15.164Z,4.83
2017-10-03T14:41:43.295Z,6.47
2017-10-03T14:44:11.393Z,5.03
2017-10-03T14:46:39.623Z,6.70
2017-10-03T14:49:09.239Z,8.73
2017-10-03T14:51:37.331Z,4.57
2017-10-03T14:54:06.322Z,4.97
2017-10-03T14:56:34.576Z,6.63
2017-10-03T14:59:02.717Z,5.97
2017-10-03T15:01:31.636Z,7.97
2017-10-03T15:03:59.902Z,5.70
2017-10-03T15:06:28.265Z,7.70
2017-10-03T15:08:57.450Z,10.90
2017-10-03T15:11:25.768Z,5.63
2017-10-03T15:13:53.841Z,8.93
2017-10-03T15:16:22.010Z,10.47
2017-10-03T15:18:50.513Z,4.73
2017-10-03T15:21:18.712Z,5.50
2017-10-03T15:23:46.872Z,4.23
2017-10-03T15:26:15.603Z,4.10
2017-10-03T15:28:43.709Z,3.40
2017-10-03T15:31:12.554Z,3.40
2017-10-03T15:33:40.668Z,3.33
2017-10-03T15:36:08.815Z,3.63
2017-10-03T15:38:36.970Z,3.07
2017-10-03T15:41:05.431Z,2.80
2017-10-03T15:43:33.576Z,3.03
2017-10-03T15:46:01.708Z,4.07
2017-10-03T15:48:29.993Z,3.60
2017-10-03T15:50:58.783Z,4.70
2017-10-03T15:53:27.631Z,3.00
2017-10-03T15:55:55.714Z,7.57
2017-10-03T15:58:23.891Z,6.73
2017-10-03T16:00:52.002Z,4.80
2017-10-03T16:03:20.078Z,5.57
2017-10-03T16:05:48.188Z,5.57
2017-10-03T16:08:16.322Z,4.07
2017-10-03T16:10:45.222Z,5.83
2017-10-03T16:13:13.348Z,4.30
2017-10-03T16:15:42.255Z,7.30
2017-10-03T16:18:10.343Z,4.80
2017-10-03T16:20:38.850Z,3.90
2017-10-03T16:23:06.936Z,5.40
2017-10-03T16:25:35.137Z,3.27
2017-10-03T16:28:03.292Z,2.90
2017-10-03T16:30:31.354Z,2.50
2017-10-03T16:32:59.443Z,3.40
2017-10-03T16:35:27.598Z,3.77
2017-10-03T16:37:55.711Z,7.33
2017-10-03T16:40:24.435Z,6.40
2017-10-03T16:42:52.543Z,3.97
2017-10-03T16:45:20.726Z,4.53
2017-10-03T16:47:48.854Z,3.13
2017-10-03T16:50:16.932Z,4.10
2017-10-03T16:52:45.011Z,6.47
2017-10-03T16:55:13.198Z,3.30
2017-10-03T16:57:41.464Z,4.23
2017-10-03T17:00:09.611Z,2.60
2017-10-03T17:02:37.702Z,3.87
2017-10-03T17:05:06.698Z,4.60
2017-10-03T17:07:36.279Z,2.93
2017-10-03T17:10:04.475Z,6.27
2017-10-03T17:12:34.196Z,4.37
2017-10-03T17:15:02.270Z,3.00
2017-10-03T17:17:30.529Z,2.90
2017-10-03T17:19:58.625Z,3.70
2017-10-03T17:22:26.870Z,2.87
2017-10-03T17:24:54.960Z,2.73
2017-10-03T17:27:23.217Z,3.37
2017-10-03T17:29:52.939Z,3.23
2017-10-03T17:32:21.079Z,3.93
2017-10-03T17:34:49.172Z,5.33
2017-10-03T17:37:18.029Z,3.63
2017-10-03T17:42:43.184Z,4.87
2017-10-03T17:45:11.354Z,2.97
2017-10-03T17:47:39.435Z,5.03
2017-10-03T17:50:08.077Z,5.17
2017-10-03T17:52:36.901Z,5.73
2017-10-03T17:55:04.979Z,6.20
2017-10-03T17:57:33.068Z,2.87
2017-10-03T18:00:02.028Z,4.30
2017-10-03T18:02:30.200Z,4.97
2017-10-03T18:04:58.280Z,2.93
2017-10-03T18:07:27.270Z,3.53
2017-10-03T18:09:55.347Z,5.03
2017-10-03T18:12:23.507Z,2.60
2017-10-03T18:14:51.611Z,6.40
2017-10-03T18:17:20.450Z,2.90
2017-10-03T18:19:48.536Z,3.40
2017-10-03T18:22:17.560Z,3.73
2017-10-03T18:24:45.791Z,4.93
2017-10-03T18:27:13.875Z,4.63
2017-10-03T18:29:42.042Z,4.40
2017-10-03T18:32:10.897Z,3.93
2017-10-03T18:34:38.980Z,4.90
2017-10-03T18:37:07.052Z,5.73
2017-10-03T18:39:35.260Z,3.50
2017-10-03T18:42:03.351Z,5.37
2017-10-03T18:44:31.439Z,4.30
2017-10-03T18:46:59.507Z,4.27
2017-10-03T18:49:27.596Z,5.23
2017-10-03T18:51:55.734Z,5.50
2017-10-03T18:54:24.571Z,4.13
2017-10-03T18:56:52.659Z,3.87
2017-10-03T18:59:20.843Z,4.17
2017-10-03T19:01:49.039Z,6.43
2017-10-03T19:04:17.892Z,6.07
2017-10-03T19:06:45.980Z,4.20
2017-10-03T19:09:14.815Z,11.10
2017-10-03T19:11:42.923Z,3.97
2017-10-03T19:14:11.009Z,4.40
2017-10-03T19:16:39.930Z,4.03
2017-10-03T19:19:08.752Z,4.90
2017-10-03T19:21:36.947Z,5.00
2017-10-03T19:24:05.039Z,6.57
2017-10-03T19:26:33.291Z,4.47
2017-10-03T19:29:01.379Z,5.77
2017-10-03T19:31:29.533Z,5.50
2017-10-03T19:33:57.586Z,10.53
2017-10-03T19:36:25.671Z,4.97
2017-10-03T19:38:53.780Z,8.33
2017-10-03T19:41:22.632Z,11.57
2017-10-03T19:43:50.715Z,7.93
2017-10-03T19:46:18.800Z,11.00
2017-10-03T19:48:47.793Z,7.93
2017-10-03T19:51:15.844Z,6.63
2017-10-03T19:53:44.157Z,7.77
2017-10-03T19:56:12.262Z,5.00
2017-10-03T19:58:40.357Z,6.30
2017-10-03T20:01:09.346Z,7.00
2017-10-03T20:03:37.898Z,6.10
2017-10-03T20:06:06.010Z,6.63
2017-10-03T20:08:34.227Z,4.50
2017-10-03T20:11:02.552Z,7.50
2017-10-03T20:13:31.585Z,8.77
2017-10-03T20:15:59.691Z,7.27
2017-10-03T20:18:27.943Z,4.60
2017-10-03T20:20:56.249Z,4.20
2017-10-03T20:23:24.352Z,4.70
2017-10-03T20:25:52.627Z,11.57
2017-10-03T20:28:21.078Z,11.60
2017-10-03T20:30:49.164Z,9.17
2017-10-03T20:33:17.245Z,7.50
2017-10-03T20:35:45.566Z,6.40
2017-10-03T20:38:13.787Z,5.30
2017-10-03T20:40:42.070Z,4.00
2017-10-03T20:43:10.202Z,6.53
2017-10-03T20:45:38.276Z,4.23
2017-10-03T20:48:06.368Z,5.37
2017-10-03T20:50:34.438Z,7.50
2017-10-03T20:53:02.514Z,4.70
2017-10-03T20:55:31.346Z,4.20
2017-10-03T20:57:59.447Z,11.23
2017-10-03T21:00:27.647Z,8.37
2017-10-03T21:02:55.803Z,6.90
2017-10-03T21:05:23.903Z,6.27
2017-10-03T21:07:52.775Z,6.27
2017-10-03T21:10:20.943Z,6.03
2017-10-03T21:12:49.087Z,8.03
2017-10-03T21:15:17.130Z,6.43
2017-10-03T21:17:45.215Z,7.67
2017-10-03T21:20:14.120Z,4.63
2017-10-03T21:22:42.441Z,5.83
2017-10-03T21:25:10.520Z,6.37
2017-10-03T21:27:38.587Z,7.20
2017-10-03T21:30:06.848Z,6.20
2017-10-03T21:32:34.939Z,5.17
2017-10-03T21:35:03.199Z,5.10
2017-10-03T21:37:31.459Z,5.10
2017-10-03T21:39:59.743Z,7.80
2017-10-03T21:42:39.667Z,7.83
2017-10-03T21:45:07.781Z,5.13
2017-10-03T21:47:35.903Z,6.23
2017-10-03T21:50:04.051Z,4.80
2017-10-03T21:52:32.128Z,5.00
2017-10-03T21:55:00.452Z,7.60
2017-10-03T21:57:30.065Z,7.97
2017-10-03T21:59:58.926Z,5.37
2017-10-03T22:02:27.007Z,7.73
2017-10-03T22:04:55.095Z,6.40
2017-10-03T22:07:23.171Z,6.47
2017-10-03T22:09:51.263Z,6.43
2017-10-03T22:12:19.347Z,5.23
2017-10-03T22:14:47.427Z,6.93
2017-10-03T22:17:15.518Z,4.63
2017-10-03T22:19:43.833Z,5.30
2017-10-03T22:22:12.680Z,8.63
2017-10-03T22:24:40.771Z,8.70
2017-10-03T22:27:08.866Z,7.90
2017-10-03T22:29:37.040Z,5.23
2017-10-03T22:32:05.112Z,6.80
2017-10-03T22:34:33.192Z,4.90
2017-10-03T22:37:01.333Z,7.60
2017-10-03T22:39:29.476Z,5.50
2017-10-03T22:42:13.359Z,5.70
2017-10-03T22:44:56.341Z,5.73
2017-10-03T22:47:25.471Z,7.00
2017-10-03T22:49:54.277Z,6.70
2017-10-03T22:52:29.301Z,8.43
2017-10-03T22:54:58.360Z,6.33
2017-10-03T22:57:26.974Z,5.97
2017-10-03T22:59:55.904Z,8.17
2017-10-03T23:02:24.531Z,8.20
2017-10-03T23:04:53.347Z,6.00
2017-10-03T23:07:22.235Z,5.30
2017-10-03T23:09:50.899Z,6.33
2017-10-03T23:12:19.781Z,7.97
2017-10-03T23:14:47.982Z,7.43
2017-10-03T23:17:16.056Z,7.07
2017-10-03T23:19:44.919Z,5.53
2017-10-03T23:22:13.023Z,10.13
2017-10-03T23:24:41.159Z,5.37
2017-10-03T23:27:09.235Z,8.20
2017-10-03T23:29:37.324Z,6.40
2017-10-03T23:32:05.404Z,5.27
2017-10-03T23:34:34.387Z,6.67
2017-10-03T23:37:02.478Z,8.23
2017-10-03T23:39:30.547Z,7.00
2017-10-03T23:41:58.667Z,5.70
2017-10-03T23:44:26.752Z,8.73
2017-10-03T23:46:54.827Z,11.93
2017-10-03T23:49:22.955Z,11.33
2017-10-03T23:51:51.043Z,7.63
2017-10-03T23:54:19.127Z,8.67
2017-10-03T23:56:47.286Z,5.73
2017-10-03T23:59:15.380Z,8.80
